Time;durP1;ratioP1;P1;durP2;ratioP2;P2;SDS_P1;SDS_P2;PMS_P1;PMS_P2;Temp;Humidity;BMP_temperature;BMP_pressure;BME280_temperature;BME280_humidity;BME280_pressure;Samples;Min_cycle;Max_cycle;Signal;HPM_P1;HPM_P2
2022/05/20 00:00:31;;;;;;;2.87;1.13;;;15.20;99.90;;;;;;4941725;29;20485;-67
2022/05/20 00:03:03;;;;;;;1.30;0.80;;;15.10;99.90;;;;;;4940686;29;20484;-68
2022/05/20 00:05:35;;;;;;;1.13;1.00;;;15.00;99.90;;;;;;4935830;29;20485;-67
2022/05/20 00:08:06;;;;;;;1.80;0.80;;;14.90;99.90;;;;;;4931156;29;20471;-67
2022/05/20 00:10:39;;;;;;;1.33;0.73;;;14.50;99.90;;;;;;4934435;29;20477;-67
2022/05/20 00:13:12;;;;;;;1.33;1.23;;;14.30;99.90;;;;;;4941851;29;20477;-68
2022/05/20 00:15:42;;;;;;;2.37;1.73;;;14.00;99.90;;;;;;4942764;29;20504;-66
2022/05/20 00:18:13;;;;;;;2.27;1.53;;;13.40;99.90;;;;;;4935954;29;20506;-66
2022/05/20 00:20:44;;;;;;;2.07;1.00;;;13.10;99.90;;;;;;4941204;29;20481;-67
2022/05/20 00:23:15;;;;;;;2.40;1.00;;;12.90;99.90;;;;;;4945432;29;20473;-64
2022/05/20 00:25:46;;;;;;;1.50;0.90;;;12.70;99.90;;;;;;4937509;29;20473;-67
2022/05/20 00:28:21;;;;;;;1.83;1.07;;;12.90;99.90;;;;;;4930813;29;20479;-66
2022/05/20 00:30:54;;;;;;;1.53;0.90;;;12.70;99.90;;;;;;4928340;29;20465;-66
2022/05/20 00:33:26;;;;;;;2.10;1.10;;;12.60;99.90;;;;;;4941682;29;21359;-65
2022/05/20 00:35:57;;;;;;;1.90;1.10;;;12.70;99.90;;;;;;4937315;29;20480;-66
2022/05/20 00:38:28;;;;;;;1.50;1.10;;;12.80;99.90;;;;;;4936999;29;20473;-66
2022/05/20 00:41:01;;;;;;;1.97;1.07;;;12.90;99.90;;;;;;4941982;29;20479;-66
2022/05/20 00:43:38;;;;;;;2.30;1.30;;;12.90;99.90;;;;;;4935376;29;20481;-68
2022/05/20 00:46:14;;;;;;;1.23;1.10;;;13.00;99.90;;;;;;4936594;29;20474;-67
2022/05/20 00:48:46;;;;;;;2.03;1.10;;;13.10;99.90;;;;;;4942614;29;20465;-68
2022/05/20 00:51:20;;;;;;;2.20;1.10;;;13.10;99.90;;;;;;4945333;29;20484;-67
2022/05/20 00:53:56;;;;;;;2.13;1.23;;;13.10;99.90;;;;;;4940833;29;20607;-67
2022/05/20 00:56:33;;;;;;;2.20;1.00;;;13.00;99.90;;;;;;4941908;29;20466;-66
2022/05/20 00:59:09;;;;;;;2.87;1.40;;;13.00;99.90;;;;;;4940824;29;20481;-67
2022/05/20 01:01:40;;;;;;;1.87;1.30;;;12.80;99.90;;;;;;4938758;29;20466;-67
2022/05/20 01:04:11;;;;;;;1.60;1.20;;;12.70;99.90;;;;;;4941572;29;20488;-67
2022/05/20 01:06:43;;;;;;;1.83;1.60;;;12.60;99.90;;;;;;4939529;29;20466;-67
2022/05/20 01:09:15;;;;;;;2.23;1.70;;;12.50;99.90;;;;;;4938732;29;20469;-66
2022/05/20 01:11:49;;;;;;;1.80;1.70;;;12.30;99.90;;;;;;4937393;29;20454;-65
2022/05/20 01:14:23;;;;;;;4.23;3.40;;;12.30;99.90;;;;;;4945593;29;20516;-67
2022/05/20 01:16:56;;;;;;;4.83;3.07;;;12.30;99.90;;;;;;4940952;29;20560;-67
2022/05/20 01:19:35;;;;;;;2.10;1.67;;;12.40;99.90;;;;;;4939143;29;20465;-67
2022/05/20 01:22:10;;;;;;;2.93;1.80;;;12.60;99.90;;;;;;4927520;29;20462;-67
2022/05/20 01:24:44;;;;;;;2.20;1.20;;;12.60;99.90;;;;;;4936500;29;20483;-67
2022/05/20 01:27:16;;;;;;;1.80;1.20;;;12.60;99.90;;;;;;4936881;29;20477;-67
2022/05/20 01:29:49;;;;;;;3.23;1.60;;;12.90;99.90;;;;;;4943173;29;20474;-68
2022/05/20 01:32:21;;;;;;;2.77;1.43;;;12.90;99.90;;;;;;4943184;29;20470;-67
2022/05/20 01:34:53;;;;;;;1.57;1.00;;;13.00;99.90;;;;;;4943049;29;20545;-66
2022/05/20 01:37:25;;;;;;;1.87;1.20;;;13.10;99.90;;;;;;4945800;29;20517;-65
2022/05/20 01:40:01;;;;;;;1.50;1.00;;;13.00;99.90;;;;;;4942733;29;20497;-64
2022/05/20 01:42:43;;;;;;;1.73;1.30;;;13.10;99.90;;;;;;4941033;29;20549;-65
2022/05/20 01:45:23;;;;;;;1.43;1.13;;;13.10;99.90;;;;;;4937934;29;20492;-65
2022/05/20 01:48:02;;;;;;;3.13;1.20;;;13.10;99.90;;;;;;4933675;29;20474;-65
2022/05/20 01:50:40;;;;;;;1.27;1.17;;;13.00;99.90;;;;;;4930265;29;21539;-67
2022/05/20 01:53:19;;;;;;;3.00;1.30;;;13.00;99.90;;;;;;4937510;29;20504;-66
2022/05/20 01:55:59;;;;;;;2.07;1.70;;;13.00;99.90;;;;;;4938725;29;21259;-65
2022/05/20 01:58:35;;;;;;;4.07;2.07;;;13.10;99.90;;;;;;4936935;29;20492;-65
2022/05/20 02:01:15;;;;;;;3.23;1.87;;;12.90;99.90;;;;;;4942268;29;20462;-65
2022/05/20 02:03:49;;;;;;;3.60;1.30;;;12.90;99.90;;;;;;4936610;29;20467;-66
2022/05/20 02:06:27;;;;;;;1.77;1.67;;;12.90;99.90;;;;;;4943828;29;20512;-66
2022/05/20 02:09:05;;;;;;;2.10;1.63;;;12.90;99.90;;;;;;4934349;29;20467;-67
2022/05/20 02:11:44;;;;;;;3.57;1.70;;;12.90;99.90;;;;;;4933335;29;20788;-68
2022/05/20 02:14:22;;;;;;;3.30;1.77;;;13.00;99.90;;;;;;4938732;29;20481;-66
2022/05/20 02:17:04;;;;;;;3.27;1.90;;;13.10;99.90;;;;;;4940702;29;20546;-67
2022/05/20 02:19:40;;;;;;;3.03;2.43;;;13.20;99.90;;;;;;4937095;29;21073;-66
2022/05/20 02:22:17;;;;;;;2.37;1.77;;;13.20;99.90;;;;;;4938490;29;20504;-66
2022/05/20 02:24:50;;;;;;;2.77;1.93;;;13.20;99.90;;;;;;4941047;29;20481;-66
2022/05/20 02:27:27;;;;;;;2.43;1.60;;;13.40;99.90;;;;;;4932841;29;20494;-65
2022/05/20 02:30:06;;;;;;;1.93;1.77;;;13.40;99.90;;;;;;4941918;29;20461;-66
2022/05/20 02:32:46;;;;;;;2.30;1.70;;;13.40;99.90;;;;;;4929958;29;20462;-66
2022/05/20 02:35:18;;;;;;;1.83;1.70;;;13.30;99.90;;;;;;4929099;29;20512;-67
2022/05/20 02:37:50;;;;;;;3.37;1.90;;;13.40;99.90;;;;;;4943450;29;20462;-66
2022/05/20 02:40:22;;;;;;;3.33;2.77;;;13.50;99.90;;;;;;4940805;29;20504;-66
2022/05/20 02:42:56;;;;;;;6.60;2.77;;;13.40;99.90;;;;;;4932681;29;20821;-65
2022/05/20 02:45:28;;;;;;;3.40;1.60;;;13.40;99.90;;;;;;4940855;29;20469;-67
2022/05/20 02:48:01;;;;;;;2.03;1.70;;;13.30;99.90;;;;;;4944129;29;20517;-65
2022/05/20 02:50:33;;;;;;;2.10;1.90;;;13.20;99.90;;;;;;4940793;29;20569;-66
2022/05/20 02:53:05;;;;;;;5.10;1.90;;;13.30;99.90;;;;;;4943076;29;20505;-66
2022/05/20 02:55:38;;;;;;;4.03;1.33;;;13.30;99.90;;;;;;4940616;29;20497;-64
2022/05/20 03:04:09;;;;;;;1.97;1.20;;;13.40;99.90;;;;;;4936465;29;20471;-66
2022/05/20 03:04:13;;;;;;;2.77;1.50;;;13.30;99.90;;;;;;4919589;29;20470;-66
2022/05/20 03:06:47;;;;;;;4.00;1.63;;;13.20;99.90;;;;;;4940545;29;20469;-67
2022/05/20 03:09:21;;;;;;;1.83;1.50;;;13.10;99.90;;;;;;4941304;29;20465;-66
2022/05/20 03:11:54;;;;;;;3.30;1.20;;;13.00;99.90;;;;;;4938313;29;20481;-67
2022/05/20 03:14:28;;;;;;;2.23;1.37;;;13.00;99.90;;;;;;4938201;29;20500;-66
2022/05/20 03:17:02;;;;;;;3.17;1.83;;;13.00;99.90;;;;;;4937558;29;20537;-66
2022/05/20 03:19:34;;;;;;;4.87;1.40;;;12.90;99.90;;;;;;4940549;29;20462;-66
2022/05/20 03:22:09;;;;;;;3.80;1.93;;;12.80;99.90;;;;;;4932474;29;20480;-66
2022/05/20 03:24:42;;;;;;;3.00;1.33;;;12.70;99.90;;;;;;4937974;29;20938;-66
2022/05/20 03:27:16;;;;;;;3.60;1.40;;;12.70;99.90;;;;;;4935635;29;20486;-66
2022/05/20 03:29:50;;;;;;;1.90;1.43;;;12.60;99.90;;;;;;4937367;29;20493;-66
2022/05/20 03:32:22;;;;;;;4.00;1.63;;;12.50;99.90;;;;;;4928930;29;20454;-66
2022/05/20 03:34:54;;;;;;;2.50;1.73;;;12.50;99.90;;;;;;4938835;29;20998;-66
2022/05/20 03:37:25;;;;;;;1.90;1.40;;;12.40;99.90;;;;;;4941797;29;20899;-66
2022/05/20 03:39:57;;;;;;;3.13;1.53;;;12.30;99.90;;;;;;4939374;29;20458;-66
2022/05/20 03:42:28;;;;;;;5.30;1.93;;;12.30;99.90;;;;;;4941836;29;20465;-66
2022/05/20 03:45:02;;;;;;;2.00;1.40;;;12.20;99.90;;;;;;4935098;29;20471;-66
2022/05/20 03:47:33;;;;;;;5.10;1.83;;;12.20;99.90;;;;;;4939815;29;20474;-65
2022/05/20 03:50:06;;;;;;;2.87;1.50;;;12.20;99.90;;;;;;4937632;29;20460;-66
2022/05/20 03:52:37;;;;;;;1.90;1.70;;;12.10;99.90;;;;;;4941721;29;20465;-67
2022/05/20 03:55:09;;;;;;;4.00;1.70;;;12.10;99.90;;;;;;4934144;29;20486;-67
2022/05/20 03:57:40;;;;;;;3.47;1.40;;;12.00;99.90;;;;;;4944555;29;20465;-65
2022/05/20 04:00:15;;;;;;;3.33;1.53;;;12.00;99.90;;;;;;4932610;29;20533;-66
2022/05/20 04:02:44;;;;;;;1.97;1.20;;;11.90;99.90;;;;;;4945329;29;20480;-66
2022/05/20 04:05:16;;;;;;;1.90;1.43;;;11.80;99.90;;;;;;4940696;29;20955;-66
2022/05/20 04:07:47;;;;;;;2.80;1.20;;;11.70;99.90;;;;;;4931351;29;20462;-67
2022/05/20 04:10:18;;;;;;;1.60;1.47;;;11.70;99.90;;;;;;4940584;29;20986;-66
2022/05/20 04:12:49;;;;;;;1.80;1.60;;;11.60;99.90;;;;;;4940351;29;20501;-66
2022/05/20 04:15:21;;;;;;;4.30;1.77;;;11.40;99.90;;;;;;4945391;29;20505;-67
2022/05/20 04:17:52;;;;;;;3.67;1.70;;;11.30;99.90;;;;;;4933120;29;20536;-66
2022/05/20 04:20:23;;;;;;;1.63;1.33;;;11.30;99.90;;;;;;4936927;29;20499;-67
2022/05/20 04:22:54;;;;;;;3.50;1.90;;;11.20;99.90;;;;;;4930929;29;20526;-66
2022/05/20 04:25:25;;;;;;;4.03;1.63;;;11.10;99.90;;;;;;4932922;29;20533;-66
2022/05/20 04:27:56;;;;;;;2.73;2.00;;;11.00;99.90;;;;;;4946332;29;20477;-66
2022/05/20 04:30:28;;;;;;;3.70;1.90;;;10.90;99.90;;;;;;4946247;29;20476;-67
2022/05/20 04:32:59;;;;;;;3.07;1.53;;;10.80;99.90;;;;;;4944602;29;20476;-65
2022/05/20 04:35:30;;;;;;;2.90;1.80;;;10.80;99.90;;;;;;4945756;29;21141;-67
2022/05/20 04:38:01;;;;;;;5.00;1.90;;;10.80;99.90;;;;;;4946789;29;20964;-66
2022/05/20 04:40:32;;;;;;;3.20;1.87;;;10.70;99.90;;;;;;4940098;29;20853;-65
2022/05/20 04:48:42;;;;;;;2.33;1.93;;;10.70;99.90;;;;;;4945068;29;20947;-66
2022/05/20 04:51:13;;;;;;;2.10;1.40;;;10.70;99.90;;;;;;4943359;29;20481;-67
2022/05/20 04:56:32;;;;;;;2.10;1.73;;;10.70;99.90;;;;;;4945285;29;20485;-67
2022/05/20 04:59:03;;;;;;;2.53;1.57;;;10.70;99.90;;;;;;4944638;29;20548;-66
2022/05/20 05:01:35;;;;;;;2.57;2.13;;;10.70;99.90;;;;;;4945659;29;20469;-66
2022/05/20 05:04:07;;;;;;;3.70;1.90;;;10.60;99.90;;;;;;4944966;29;20458;-67
2022/05/20 05:06:38;;;;;;;3.70;2.20;;;10.60;99.90;;;;;;4935566;29;20485;-66
2022/05/20 05:09:09;;;;;;;4.90;2.00;;;10.50;99.90;;;;;;4941722;29;20478;-66
2022/05/20 05:11:41;;;;;;;4.60;2.10;;;10.60;99.90;;;;;;4934203;29;20462;-66
2022/05/20 05:14:13;;;;;;;3.13;1.90;;;10.50;99.90;;;;;;4939860;29;20462;-67
2022/05/20 05:16:46;;;;;;;5.77;2.10;;;10.40;99.90;;;;;;4945464;29;20511;-65
2022/05/20 05:19:17;;;;;;;6.57;2.03;;;10.40;99.90;;;;;;4930570;29;20470;-65
2022/05/20 05:21:48;;;;;;;5.00;2.27;;;10.40;99.90;;;;;;4944930;29;20474;-65
2022/05/20 05:24:19;;;;;;;4.60;2.10;;;10.30;99.90;;;;;;4942664;29;20470;-66
2022/05/20 05:26:53;;;;;;;4.27;1.70;;;10.20;99.90;;;;;;4938623;29;20458;-67
2022/05/20 05:29:25;;;;;;;2.77;1.57;;;10.20;99.90;;;;;;4943594;29;20465;-67
2022/05/20 05:31:58;;;;;;;3.53;1.73;;;10.10;99.90;;;;;;4944607;29;20473;-66
2022/05/20 05:34:29;;;;;;;4.23;1.87;;;10.00;99.90;;;;;;4945188;29;20458;-66
2022/05/20 05:37:00;;;;;;;4.87;2.53;;;10.00;99.90;;;;;;4945833;29;20524;-66
2022/05/20 05:39:31;;;;;;;7.87;1.80;;;10.00;99.90;;;;;;4939129;29;20489;-66
2022/05/20 05:42:02;;;;;;;2.17;1.40;;;10.00;99.90;;;;;;4931833;29;20462;-66
2022/05/20 05:44:38;;;;;;;6.77;2.97;;;10.10;99.90;;;;;;4928346;29;20526;-67
2022/05/20 05:47:10;;;;;;;2.30;1.80;;;10.00;99.90;;;;;;4944581;29;20876;-66
2022/05/20 05:49:41;;;;;;;3.83;1.90;;;10.10;99.90;;;;;;4945801;29;20458;-66
2022/05/20 05:52:12;;;;;;;2.27;2.07;;;10.10;99.90;;;;;;4946391;29;20759;-65
2022/05/20 05:54:43;;;;;;;2.83;1.93;;;10.20;99.90;;;;;;4944676;29;20460;-66
2022/05/20 05:57:14;;;;;;;3.93;1.67;;;10.20;99.90;;;;;;4946105;29;20482;-66
2022/05/20 05:59:48;;;;;;;3.93;1.73;;;10.10;99.90;;;;;;4946277;29;21220;-66
2022/05/20 06:02:21;;;;;;;4.40;2.77;;;10.10;99.90;;;;;;4946130;29;20445;-66
2022/05/20 06:04:55;;;;;;;5.27;2.50;;;10.00;99.90;;;;;;4944938;29;20573;-66
2022/05/20 06:07:26;;;;;;;4.60;2.03;;;9.90;99.90;;;;;;4935472;29;20463;-66
2022/05/20 06:09:57;;;;;;;4.90;2.07;;;9.80;99.90;;;;;;4929415;29;20234;-66
2022/05/20 06:12:34;;;;;;;3.17;1.90;;;9.60;99.90;;;;;;4930146;29;20461;-66
2022/05/20 06:15:17;;;;;;;3.60;2.20;;;9.60;99.90;;;;;;4945457;29;20245;-66
2022/05/20 06:17:54;;;;;;;7.60;2.23;;;9.30;99.90;;;;;;4939351;29;20337;-65
2022/05/20 06:20:26;;;;;;;4.93;2.30;;;9.30;99.90;;;;;;4944822;29;20458;-66
2022/05/20 06:23:01;;;;;;;3.87;2.57;;;9.20;99.90;;;;;;4945577;29;20213;-66
2022/05/20 06:25:32;;;;;;;2.87;2.13;;;9.10;99.90;;;;;;4932282;29;20446;-66
2022/05/20 06:28:08;;;;;;;6.50;2.28;;;9.10;99.90;;;;;;4945030;29;20932;-65
2022/05/20 06:30:39;;;;;;;3.67;2.72;;;9.00;99.90;;;;;;4945580;29;20200;-65
2022/05/20 06:33:14;;;;;;;3.20;2.10;;;8.90;99.90;;;;;;4946226;29;20194;-64
2022/05/20 06:41:36;;;;;;;9.38;2.58;;;8.70;99.90;;;;;;4904636;29;20213;-65
2022/05/20 06:44:07;;;;;;;5.05;2.85;;;8.70;99.90;;;;;;4904870;29;20211;-65
2022/05/20 06:46:38;;;;;;;16.15;8.90;;;8.60;99.90;;;;;;4904872;29;20231;-64
2022/05/20 06:49:11;;;;;;;5.65;4.57;;;8.50;99.90;;;;;;4905257;29;20234;-65
2022/05/20 06:51:42;;;;;;;7.47;4.20;;;8.50;99.90;;;;;;4905592;29;20207;-66
2022/05/20 06:54:13;;;;;;;5.90;3.25;;;8.40;99.90;;;;;;4905043;29;20203;-65
2022/05/20 06:56:44;;;;;;;4.68;3.10;;;8.40;99.90;;;;;;4904162;29;20226;-66
2022/05/20 06:59:17;;;;;;;3.60;2.72;;;8.30;99.90;;;;;;4905239;29;20215;-65
2022/05/20 07:01:48;;;;;;;2.50;2.30;;;8.20;99.90;;;;;;4905053;29;20203;-66
2022/05/20 07:04:40;;;;;;;10.70;3.22;;;8.20;99.90;;;;;;4904551;29;20215;-66
2022/05/20 07:07:11;;;;;;;3.85;2.40;;;8.00;99.90;;;;;;4886572;29;20203;-66
2022/05/20 07:09:42;;;;;;;6.05;2.65;;;8.10;99.90;;;;;;4904541;29;20307;-65
2022/05/20 07:12:14;;;;;;;4.57;2.90;;;8.00;99.90;;;;;;4926355;29;20220;-64
2022/05/20 07:14:45;;;;;;;8.25;3.30;;;8.00;99.90;;;;;;4934333;29;20238;-65
2022/05/20 07:17:18;;;;;;;4.05;2.60;;;8.00;99.90;;;;;;4945256;29;20234;-65
2022/05/20 07:19:51;;;;;;;6.95;2.83;;;8.00;99.90;;;;;;4944978;29;20214;-65
2022/05/20 07:22:22;;;;;;;3.53;3.22;;;8.00;99.90;;;;;;4945281;29;20194;-66
2022/05/20 07:24:53;;;;;;;3.38;2.58;;;7.80;99.90;;;;;;4944480;29;20684;-65
2022/05/20 07:27:23;;;;;;;4.88;2.35;;;7.80;99.90;;;;;;4945228;29;20220;-65
2022/05/20 07:29:54;;;;;;;5.07;3.10;;;7.80;99.90;;;;;;4945289;29;20208;-65
2022/05/20 07:32:27;;;;;;;4.38;2.50;;;7.80;99.90;;;;;;4949315;29;20222;-65
2022/05/20 07:35:00;;;;;;;5.60;3.65;;;7.80;99.90;;;;;;4949082;29;20210;-65
2022/05/20 07:37:30;;;;;;;3.45;2.67;;;7.70;99.90;;;;;;4949513;29;20343;-64
2022/05/20 07:40:02;;;;;;;6.63;3.25;;;7.60;99.90;;;;;;4948482;29;20216;-65
2022/05/20 07:42:33;;;;;;;3.65;2.78;;;7.60;99.90;;;;;;4947154;29;20214;-64
2022/05/20 07:45:04;;;;;;;5.03;2.60;;;7.60;99.90;;;;;;4933455;29;20655;-65
2022/05/20 07:47:34;;;;;;;3.78;3.03;;;7.50;99.90;;;;;;4931642;29;20210;-66
2022/05/20 07:50:08;;;;;;;6.03;3.45;;;7.40;99.90;;;;;;4929360;29;20248;-65
2022/05/20 07:55:31;;;;;;;5.63;3.97;;;7.40;99.90;;;;;;4947767;29;20237;-66
2022/05/20 07:58:04;;;;;;;5.50;3.88;;;7.40;99.90;;;;;;4929523;29;20242;-64
2022/05/20 08:00:35;;;;;;;3.95;3.22;;;7.40;99.90;;;;;;4929255;29;20221;-65
2022/05/20 08:03:07;;;;;;;4.65;2.80;;;7.30;99.90;;;;;;4929243;29;20211;-65
2022/05/20 08:05:39;;;;;;;4.03;3.45;;;7.20;99.90;;;;;;4938956;29;20234;-64
2022/05/20 08:08:12;;;;;;;3.97;2.80;;;7.20;99.90;;;;;;4942723;29;20311;-65
2022/05/20 08:10:45;;;;;;;3.17;2.72;;;7.20;99.90;;;;;;4947883;29;20198;-65
2022/05/20 08:13:17;;;;;;;5.85;3.00;;;7.20;99.90;;;;;;4948261;29;20214;-65
2022/05/20 08:15:48;;;;;;;4.95;3.70;;;7.20;99.90;;;;;;4942955;29;20231;-65
2022/05/20 08:18:21;;;;;;;6.53;3.80;;;7.10;99.90;;;;;;4929050;29;20238;-65
2022/05/20 08:20:55;;;;;;;5.88;3.53;;;7.00;99.90;;;;;;4930001;29;20210;-65
2022/05/20 08:23:26;;;;;;;7.10;3.65;;;7.00;99.90;;;;;;4928865;29;20217;-65
2022/05/20 08:25:57;;;;;;;4.07;3.65;;;7.10;99.90;;;;;;4939933;29;20249;-65
2022/05/20 08:28:28;;;;;;;5.85;4.05;;;7.00;99.90;;;;;;4947977;29;20209;-65
2022/05/20 08:30:58;;;;;;;4.57;3.45;;;7.10;99.90;;;;;;4947753;29;20684;-65
2022/05/20 08:33:29;;;;;;;3.53;2.90;;;7.00;99.90;;;;;;4947561;29;20210;-65
2022/05/20 08:36:03;;;;;;;5.60;3.05;;;7.00;99.90;;;;;;4946993;29;20228;-65
2022/05/20 08:38:34;;;;;;;5.63;3.25;;;6.90;99.90;;;;;;4947971;29;20245;-66
2022/05/20 08:41:05;;;;;;;4.45;4.15;;;6.90;99.90;;;;;;4941755;29;20187;-66
2022/05/20 08:43:37;;;;;;;4.43;4.07;;;6.90;99.90;;;;;;4927699;29;20254;-66
2022/05/20 08:46:11;;;;;;;5.43;3.58;;;6.80;99.90;;;;;;4927822;29;20597;-66
2022/05/20 08:48:44;;;;;;;6.40;3.30;;;6.80;99.90;;;;;;4943370;29;20210;-66
2022/05/20 08:51:17;;;;;;;4.30;3.85;;;6.80;99.90;;;;;;4947301;29;20245;-65
2022/05/20 08:53:52;;;;;;;6.35;3.20;;;6.80;99.90;;;;;;4947073;29;20200;-67
2022/05/20 08:56:25;;;;;;;3.95;3.47;;;6.70;99.90;;;;;;4946848;29;20209;-65
2022/05/20 08:58:59;;;;;;;5.18;3.38;;;6.80;99.90;;;;;;4947847;29;20234;-66
2022/05/20 09:01:32;;;;;;;6.35;4.03;;;6.80;99.90;;;;;;4947736;29;20210;-65
2022/05/20 09:04:05;;;;;;;4.22;3.50;;;6.90;99.90;;;;;;4947811;29;20246;-65
2022/05/20 09:06:42;;;;;;;4.10;3.70;;;7.00;99.90;;;;;;4947342;29;20240;-66
2022/05/20 09:09:15;;;;;;;3.55;3.20;;;7.10;99.90;;;;;;4947394;29;20213;-66
2022/05/20 09:11:54;;;;;;;3.88;3.45;;;7.10;99.90;;;;;;4947400;29;20233;-66
2022/05/20 09:17:15;;;;;;;4.88;3.70;;;7.20;99.90;;;;;;4946829;29;20229;-65
2022/05/20 09:20:00;;;;;;;6.38;3.50;;;7.30;99.90;;;;;;4946666;29;20249;-65
2022/05/20 09:22:35;;;;;;;5.32;3.25;;;7.40;99.90;;;;;;4946966;29;20229;-66
2022/05/20 09:25:21;;;;;;;5.15;3.63;;;7.50;99.90;;;;;;4945960;29;20209;-65
2022/05/20 09:27:52;;;;;;;4.75;3.55;;;7.50;99.90;;;;;;4946599;29;20229;-66
2022/05/20 09:30:25;;;;;;;5.65;3.30;;;7.60;99.90;;;;;;4946301;29;20202;-66
2022/05/20 09:33:16;;;;;;;6.85;3.47;;;7.70;99.90;;;;;;4933679;29;20209;-66
2022/05/20 09:35:52;;;;;;;3.90;3.50;;;7.70;99.90;;;;;;4927929;29;20194;-65
2022/05/20 09:38:38;;;;;;;5.88;4.57;;;7.80;99.90;;;;;;4927174;29;20253;-66
2022/05/20 09:41:17;;;;;;;3.97;3.00;;;7.70;99.90;;;;;;4933346;29;20202;-65
2022/05/20 09:44:01;;;;;;;5.15;3.92;;;7.80;99.90;;;;;;4946552;29;20210;-66
2022/05/20 09:46:34;;;;;;;4.90;3.60;;;7.80;99.90;;;;;;4946316;29;20302;-65
2022/05/20 09:49:09;;;;;;;5.50;3.67;;;7.80;99.90;;;;;;4946066;29;20221;-64
2022/05/20 09:51:43;;;;;;;5.00;3.15;;;7.80;99.90;;;;;;4946264;29;20209;-66
2022/05/20 09:54:26;;;;;;;4.95;4.07;;;7.80;99.90;;;;;;4946416;29;20185;-65
2022/05/20 09:57:05;;;;;;;6.18;3.20;;;7.80;99.90;;;;;;4946723;29;20269;-65
2022/05/20 09:59:44;;;;;;;4.85;4.15;;;7.90;99.90;;;;;;4946322;29;20565;-65
2022/05/20 10:02:25;;;;;;;5.40;3.38;;;7.90;99.90;;;;;;4946151;29;20209;-65
2022/05/20 10:05:12;;;;;;;4.63;3.33;;;7.90;99.90;;;;;;4946026;29;20210;-65
2022/05/20 10:08:01;;;;;;;7.65;4.40;;;7.90;99.90;;;;;;4945752;29;20218;-65
2022/05/20 10:10:48;;;;;;;3.92;3.53;;;7.90;99.90;;;;;;4945179;29;20222;-67
2022/05/20 10:13:30;;;;;;;4.97;3.63;;;7.90;99.90;;;;;;4946023;29;20658;-65
2022/05/20 10:16:12;;;;;;;5.60;3.15;;;7.80;99.90;;;;;;4945470;29;20748;-65
2022/05/20 10:18:55;;;;;;;8.65;4.22;;;7.80;99.90;;;;;;4946241;29;20249;-66
2022/05/20 10:21:39;;;;;;;6.50;3.65;;;7.70;99.90;;;;;;4941634;29;20214;-65
2022/05/20 10:24:19;;;;;;;4.13;3.67;;;7.60;99.90;;;;;;4926940;29;20281;-66
2022/05/20 10:26:57;;;;;;;5.18;3.83;;;7.60;99.90;;;;;;4926887;29;20237;-64
2022/05/20 10:32:38;;;;;;;5.60;3.08;;;7.50;99.90;;;;;;4926897;29;20218;-65
2022/05/20 10:35:11;;;;;;;7.10;3.90;;;7.50;99.90;;;;;;4926660;29;20581;-66
2022/05/20 10:38:04;;;;;;;4.10;3.70;;;7.60;99.90;;;;;;4926659;29;20297;-65
2022/05/20 10:40:48;;;;;;;4.45;3.75;;;7.60;99.90;;;;;;4927309;29;20348;-65
2022/05/20 10:48:34;;;;;;;4.82;3.65;;;7.50;99.90;;;;;;4945436;29;20201;-66
2022/05/20 10:49:31;;;;;;;6.70;4.28;;;7.50;99.90;;;;;;4945041;29;20214;-66
2022/05/20 10:52:11;;;;;;;4.85;4.28;;;7.40;99.90;;;;;;4946034;29;20221;-65
2022/05/20 10:54:57;;;;;;;4.18;3.50;;;7.40;99.90;;;;;;4937895;29;20241;-65
2022/05/20 10:57:49;;;;;;;6.85;3.25;;;7.50;99.90;;;;;;4926776;29;20210;-65
2022/05/20 11:00:23;;;;;;;4.22;3.53;;;7.50;99.90;;;;;;4926320;29;20244;-66
2022/05/20 11:03:27;;;;;;;4.15;3.85;;;7.60;99.90;;;;;;4926659;29;20214;-65
2022/05/20 11:06:51;;;;;;;3.97;3.63;;;7.60;99.90;;;;;;4919356;29;20211;-66
2022/05/20 11:09:31;;;;;;;4.75;3.75;;;7.60;99.90;;;;;;4925330;29;20218;-65
2022/05/20 11:12:02;;;;;;;3.45;3.15;;;7.60;99.90;;;;;;4926705;29;20242;-65
2022/05/20 11:15:01;;;;;;;8.48;4.40;;;7.70;99.90;;;;;;4926455;29;20238;-65
2022/05/20 11:17:56;;;;;;;5.47;3.67;;;7.70;99.90;;;;;;4924062;29;20225;-65
2022/05/20 11:20:49;;;;;;;6.40;4.10;;;7.70;99.90;;;;;;4926770;29;20241;-65
2022/05/20 11:23:40;;;;;;;5.38;4.30;;;7.80;99.90;;;;;;4927664;29;20211;-66
2022/05/20 11:26:36;;;;;;;6.50;4.38;;;7.90;99.90;;;;;;4926809;29;20294;-65
2022/05/20 11:29:29;;;;;;;4.00;3.60;;;8.00;99.90;;;;;;4922922;29;20206;-66
2022/05/20 11:32:04;;;;;;;4.75;4.22;;;8.00;99.90;;;;;;4927975;29;20212;-65
2022/05/20 11:34:57;;;;;;;7.65;4.80;;;8.00;99.90;;;;;;4928008;29;20670;-65
2022/05/20 11:38:05;;;;;;;5.53;4.95;;;8.00;99.90;;;;;;4928192;29;20202;-65
2022/05/20 11:40:41;;;;;;;6.65;3.85;;;8.10;99.90;;;;;;4925083;29;20234;-66
2022/05/20 11:43:49;;;;;;;5.95;4.20;;;8.10;99.90;;;;;;4946158;29;20281;-66
2022/05/20 11:46:32;;;;;;;4.20;3.80;;;8.00;99.90;;;;;;4885974;29;20211;-66
2022/05/20 11:49:30;;;;;;;5.13;4.63;;;8.10;99.90;;;;;;4885806;29;20241;-65
2022/05/20 11:52:29;;;;;;;4.20;3.80;;;8.20;99.90;;;;;;4886126;29;20257;-65
2022/05/20 11:55:06;;;;;;;5.72;3.97;;;8.20;99.90;;;;;;4884989;29;20649;-65
2022/05/20 11:57:41;;;;;;;5.88;3.75;;;8.10;99.90;;;;;;4885854;29;20230;-65
2022/05/20 12:00:16;;;;;;;6.65;4.13;;;8.10;99.90;;;;;;4885118;29;20239;-65
2022/05/20 12:02:50;;;;;;;6.50;4.50;;;8.20;99.90;;;;;;4885927;29;20219;-65
2022/05/20 12:05:25;;;;;;;7.63;5.25;;;8.20;99.90;;;;;;4885287;29;20200;-65
2022/05/20 12:07:58;;;;;;;4.90;4.40;;;8.20;99.90;;;;;;4886071;29;20246;-65
2022/05/20 12:10:50;;;;;;;4.43;4.00;;;8.30;99.90;;;;;;4884297;29;20212;-65
2022/05/20 12:13:23;;;;;;;9.07;4.43;;;8.40;99.90;;;;;;4885277;29;20216;-65
2022/05/20 12:16:13;;;;;;;8.88;4.40;;;8.40;99.90;;;;;;4889902;29;20274;-66
2022/05/20 12:24:42;;;;;;;5.38;4.20;;;8.40;99.90;;;;;;4946689;29;20218;-65
2022/05/20 12:27:36;;;;;;;6.03;4.10;;;8.40;99.90;;;;;;4948032;29;20213;-65
2022/05/20 12:30:11;;;;;;;5.88;4.25;;;8.40;99.90;;;;;;4947274;29;20233;-65
2022/05/20 12:32:50;;;;;;;7.80;4.67;;;8.40;99.90;;;;;;4948104;29;20202;-66
2022/05/20 12:35:25;;;;;;;7.15;4.00;;;8.50;99.90;;;;;;4946975;29;20446;-64
2022/05/20 12:38:23;;;;;;;5.57;3.80;;;8.50;99.90;;;;;;4947814;29;20359;-66
2022/05/20 12:41:14;;;;;;;7.65;4.30;;;8.50;99.90;;;;;;4946161;29;20233;-65
2022/05/20 12:43:57;;;;;;;4.30;3.90;;;8.50;99.90;;;;;;4947572;29;20286;-64
2022/05/20 12:47:04;;;;;;;6.95;4.30;;;8.60;99.90;;;;;;4947431;29;20269;-65
2022/05/20 12:49:44;;;;;;;5.63;4.05;;;8.60;99.90;;;;;;4946876;29;20214;-65
2022/05/20 12:52:23;;;;;;;5.20;3.95;;;8.70;99.90;;;;;;4947505;29;20214;-65
2022/05/20 12:54:55;;;;;;;7.15;4.20;;;8.70;99.90;;;;;;4946482;29;20228;-65
2022/05/20 12:57:30;;;;;;;4.45;4.05;;;8.60;99.90;;;;;;4947845;29;20320;-66
2022/05/20 13:00:05;;;;;;;4.72;4.32;;;8.60;99.90;;;;;;4947029;29;20244;-65
2022/05/20 13:02:38;;;;;;;5.55;4.10;;;8.60;99.90;;;;;;4947851;29;20208;-65
2022/05/20 13:05:20;;;;;;;5.75;4.30;;;8.70;99.90;;;;;;4947104;29;20213;-65
2022/05/20 13:07:53;;;;;;;4.72;4.05;;;8.70;99.90;;;;;;4947150;29;20240;-66
2022/05/20 13:10:28;;;;;;;9.02;4.60;;;8.70;99.90;;;;;;4946189;29;20328;-65
2022/05/20 13:13:04;;;;;;;8.45;4.43;;;8.70;99.90;;;;;;4946881;29;20217;-67
2022/05/20 13:15:41;;;;;;;8.95;4.63;;;8.70;99.90;;;;;;4946313;29;20779;-66
2022/05/20 13:18:18;;;;;;;5.87;4.00;;;8.60;99.90;;;;;;4947391;29;20692;-65
2022/05/20 13:20:51;;;;;;;4.77;3.83;;;8.60;99.90;;;;;;4946560;29;20497;-65
2022/05/20 13:23:24;;;;;;;6.57;4.07;;;8.70;99.90;;;;;;4947017;29;20536;-65
2022/05/20 13:25:55;;;;;;;6.88;4.30;;;8.70;99.90;;;;;;4945597;29;20517;-66
2022/05/20 13:28:31;;;;;;;4.05;3.45;;;8.80;99.90;;;;;;4945701;29;20665;-67
2022/05/20 13:31:04;;;;;;;5.35;3.90;;;8.80;99.90;;;;;;4946302;29;20213;-67
2022/05/20 13:33:37;;;;;;;7.10;4.20;;;8.90;99.90;;;;;;4946448;29;20238;-67
2022/05/20 13:36:10;;;;;;;6.57;4.25;;;9.00;99.90;;;;;;4946596;29;20260;-66
2022/05/20 13:38:45;;;;;;;6.20;4.75;;;9.00;99.90;;;;;;4946578;29;20217;-66
2022/05/20 13:41:16;;;;;;;5.28;3.30;;;9.00;99.90;;;;;;4938194;29;20222;-67
2022/05/20 13:43:48;;;;;;;8.60;4.00;;;9.10;99.90;;;;;;4932842;29;20214;-66
2022/05/20 13:49:19;;;;;;;4.97;3.00;;;9.10;99.90;;;;;;4946301;29;20595;-67
2022/05/20 13:51:52;;;;;;;10.15;4.38;;;9.10;99.90;;;;;;4946124;29;20214;-67
2022/05/20 13:54:25;;;;;;;3.42;3.13;;;9.20;99.90;;;;;;4945915;29;20214;-67
2022/05/20 13:56:57;;;;;;;6.97;4.20;;;9.30;99.90;;;;;;4946639;29;20217;-67
2022/05/20 13:59:41;;;;;;;4.77;3.90;;;9.50;99.90;;;;;;4946209;29;20220;-67
2022/05/20 14:02:16;;;;;;;5.65;2.70;;;9.50;99.90;;;;;;4945740;29;20515;-66
2022/05/20 14:04:55;;;;;;;4.83;3.20;;;9.50;99.90;;;;;;4945934;29;20213;-67
2022/05/20 14:07:33;;;;;;;6.43;4.30;;;9.60;99.90;;;;;;4945537;29;20517;-67
2022/05/20 14:10:15;;;;;;;5.77;3.60;;;9.60;99.90;;;;;;4945172;29;20442;-66
2022/05/20 14:12:49;;;;;;;3.83;3.53;;;9.60;99.90;;;;;;4946456;29;20947;-66
2022/05/20 14:15:32;;;;;;;8.23;3.40;;;9.50;99.90;;;;;;4945180;29;20933;-66